Time;durP1;ratioP1;P1;durP2;ratioP2;P2;SDS_P1;SDS_P2;PMS_P1;PMS_P2;Temp;Humidity;BMP_temperature;BMP_pressure;BME280_temperature;BME280_humidity;BME280_pressure;Samples;Min_cycle;Max_cycle;Signal;HPM_P1;HPM_P2
2023/02/22 00:02:09;;;;;;;;;;;;;;;23.80;30.92;95117.66;5073186;28;1720;-73
2023/02/22 00:04:34;;;;;;;;;;;;;;;23.83;30.90;95121.75;5072706;28;1812;-71
2023/02/22 00:07:00;;;;;;;;;;;;;;;23.84;31.12;95120.69;5073733;28;1897;-73
2023/02/22 00:09:26;;;;;;;;;;;;;;;23.85;30.99;95123.16;5074134;28;1712;-73
2023/02/22 00:11:51;;;;;;;;;;;;;;;23.87;31.04;95117.56;5064158;28;1661;-71
2023/02/22 00:14:19;;;;;;;;;;;;;;;23.87;31.06;95123.75;5063314;28;1763;-72
2023/02/22 00:16:44;;;;;;;;;;;;;;;23.88;31.10;95119.19;5067682;28;1999;-74
2023/02/22 00:19:09;;;;;;;;;;;;;;;23.88;31.55;95117.34;5073985;28;1777;-73
2023/02/22 00:21:36;;;;;;;;;;;;;;;23.91;31.48;95119.59;5068924;28;1825;-72
2023/02/22 00:24:15;;;;;;;;;;;;;;;23.90;31.30;95112.56;5064648;28;1722;-71
2023/02/22 00:26:41;;;;;;;;;;;;;;;23.83;31.19;95114.53;5066536;28;1926;-72
2023/02/22 00:29:07;;;;;;;;;;;;;;;23.80;31.51;95112.28;5073797;28;1545;-71
2023/02/22 00:31:36;;;;;;;;;;;;;;;23.79;31.41;95110.63;5073700;28;1857;-71
2023/02/22 00:34:01;;;;;;;;;;;;;;;23.80;31.63;95112.28;5062769;28;1935;-70
2023/02/22 00:36:27;;;;;;;;;;;;;;;23.79;31.62;95110.63;5073331;28;1693;-72
2023/02/22 00:38:52;;;;;;;;;;;;;;;23.77;31.38;95110.88;5070069;28;2055;-71
2023/02/22 00:41:17;;;;;;;;;;;;;;;23.75;31.74;95101.41;5073195;28;1796;-71
2023/02/22 00:43:42;;;;;;;;;;;;;;;23.75;31.54;95101.41;5073449;28;1793;-72
2023/02/22 00:46:07;;;;;;;;;;;;;;;23.76;31.54;95097.69;5062502;28;1853;-71
2023/02/22 00:48:33;;;;;;;;;;;;;;;23.76;31.81;95101.22;5072392;28;1963;-71
2023/02/22 00:50:58;;;;;;;;;;;;;;;23.81;31.65;95089.81;5062437;28;2050;-71
2023/02/22 00:53:24;;;;;;;;;;;;;;;23.84;31.87;95092.03;5066555;28;1935;-71
2023/02/22 00:55:50;;;;;;;;;;;;;;;23.86;31.78;95091.81;5068242;28;1781;-71
2023/02/22 00:58:15;;;;;;;;;;;;;;;23.83;31.73;95086.91;5068884;28;1843;-71
2023/02/22 01:00:41;;;;;;;;;;;;;;;23.78;31.74;95090.25;5073109;28;1926;-71
2023/02/22 01:03:08;;;;;;;;;;;;;;;23.77;31.85;95088.63;5089302;22;2035;-72
2023/02/22 01:05:34;;;;;;;;;;;;;;;23.77;32.08;95084.09;5039335;28;1554;-70
2023/02/22 01:08:00;;;;;;;;;;;;;;;23.79;32.01;95075.81;5036673;28;1910;-72
2023/02/22 01:10:26;;;;;;;;;;;;;;;23.78;31.88;95082.22;5052245;28;1730;-73
2023/02/22 01:12:53;;;;;;;;;;;;;;;23.78;32.07;95076.88;5041499;28;1595;-74
2023/02/22 01:15:20;;;;;;;;;;;;;;;23.77;32.22;95069.88;5054831;28;1584;-73
2023/02/22 01:17:46;;;;;;;;;;;;;;;23.77;31.86;95068.00;5047001;28;1366;-74
2023/02/22 01:20:11;;;;;;;;;;;;;;;23.79;32.27;95076.66;5027405;28;1486;-74
2023/02/22 01:22:38;;;;;;;;;;;;;;;23.82;31.98;95075.38;5051874;28;1536;-74
2023/02/22 01:25:06;;;;;;;;;;;;;;;23.82;31.91;95072.69;5051080;28;1297;-74
2023/02/22 01:27:31;;;;;;;;;;;;;;;23.78;32.23;95066.97;5034968;28;1898;-73
2023/02/22 01:29:57;;;;;;;;;;;;;;;23.79;32.25;95065.09;5031943;28;1487;-69
2023/02/22 01:32:22;;;;;;;;;;;;;;;23.77;32.20;95059.16;5038595;28;1329;-73
2023/02/22 01:34:47;;;;;;;;;;;;;;;23.78;32.23;95063.47;5035654;28;1337;-73
2023/02/22 01:37:12;;;;;;;;;;;;;;;23.77;32.26;95061.84;5036370;28;1728;-73
2023/02/22 01:39:38;;;;;;;;;;;;;;;23.76;32.29;95063.72;5053686;28;1612;-72
2023/02/22 01:42:03;;;;;;;;;;;;;;;23.77;32.27;95065.34;5037351;28;1695;-73
2023/02/22 01:44:32;;;;;;;;;;;;;;;23.77;32.33;95061.84;5048116;28;1798;-73
2023/02/22 01:46:59;;;;;;;;;;;;;;;23.75;32.61;95064.72;5042100;28;1973;-72
2023/02/22 01:49:28;;;;;;;;;;;;;;;23.76;32.40;95063.72;5040822;28;1726;-73
2023/02/22 01:51:55;;;;;;;;;;;;;;;23.79;32.57;95065.94;5042877;28;1843;-73
2023/02/22 01:54:24;;;;;;;;;;;;;;;23.75;32.53;95071.97;5041658;28;1770;-74
2023/02/22 01:56:53;;;;;;;;;;;;;;;23.77;32.53;95072.56;5043160;28;1751;-74
2023/02/22 01:59:19;;;;;;;;;;;;;;;23.79;32.46;95062.41;5052743;28;1533;-74
2023/02/22 02:01:45;;;;;;;;;;;;;;;23.78;32.70;95068.81;5041968;28;1786;-74
2023/02/22 02:04:14;;;;;;;;;;;;;;;23.78;32.68;95068.81;5035103;28;1714;-71
2023/02/22 02:06:41;;;;;;;;;;;;;;;23.79;32.79;95065.09;5050000;28;1918;-72
2023/02/22 02:09:41;;;;;;;;;;;;;;;23.78;32.56;95063.47;5052097;28;1882;-73
2023/02/22 02:12:09;;;;;;;;;;;;;;;23.77;32.63;95064.53;5030237;28;1839;-73
2023/02/22 02:14:39;;;;;;;;;;;;;;;23.76;32.75;95066.38;5043281;28;1842;-72
2023/02/22 02:17:05;;;;;;;;;;;;;;;23.77;32.68;95067.19;5043624;28;1718;-74
2023/02/22 02:19:37;;;;;;;;;;;;;;;23.76;32.80;95068.22;5036861;28;1808;-73
2023/02/22 02:22:05;;;;;;;;;;;;;;;23.77;32.56;95072.56;5044659;28;1844;-74
2023/02/22 02:24:50;;;;;;;;;;;;;;;23.77;32.73;95072.56;5053960;28;927;-74
2023/02/22 02:27:18;;;;;;;;;;;;;;;23.76;32.99;95071.75;5042916;28;1954;-73
2023/02/22 02:29:55;;;;;;;;;;;;;;;23.77;32.88;95069.88;5052417;28;1749;-73
2023/02/22 02:32:26;;;;;;;;;;;;;;;23.77;32.84;95073.38;5050602;28;1819;-73
2023/02/22 02:34:57;;;;;;;;;;;;;;;23.78;32.64;95079.53;5047321;28;1741;-73
2023/02/22 02:37:36;;;;;;;;;;;;;;;23.77;33.00;95083.28;5050187;28;1898;-74
2023/02/22 02:40:10;;;;;;;;;;;;;;;23.77;32.88;95083.28;5046711;28;1773;-73
2023/02/22 02:42:39;;;;;;;;;;;;;;;23.77;33.19;95080.59;5047684;28;1921;-73
2023/02/22 02:45:10;;;;;;;;;;;;;;;23.77;32.91;95085.94;5050423;28;1715;-73
2023/02/22 02:47:39;;;;;;;;;;;;;;;23.78;33.00;95084.91;5052967;28;2042;-73
2023/02/22 02:50:04;;;;;;;;;;;;;;;23.77;33.13;95091.31;5030559;28;1748;-73
2023/02/22 02:52:32;;;;;;;;;;;;;;;23.77;32.80;95094.00;5040624;28;1884;-73
2023/02/22 02:54:58;;;;;;;;;;;;;;;23.78;32.93;95092.94;5051313;28;1784;-73
2023/02/22 02:57:23;;;;;;;;;;;;;;;23.80;33.34;95093.53;5052633;28;1802;-73
2023/02/22 02:59:48;;;;;;;;;;;;;;;23.85;33.47;95090.16;5047714;28;1786;-74
2023/02/22 03:02:14;;;;;;;;;;;;;;;23.84;33.26;95089.34;5035340;28;1353;-74
2023/02/22 03:04:42;;;;;;;;;;;;;;;23.84;33.64;95100.06;5046812;28;1848;-73
2023/02/22 03:07:10;;;;;;;;;;;;;;;23.84;33.58;95092.03;5046626;28;1985;-73
2023/02/22 03:10:01;;;;;;;;;;;;;;;23.83;33.44;95095.78;5038962;28;1801;-73
2023/02/22 03:12:34;;;;;;;;;;;;;;;23.83;33.30;95098.44;5038332;28;1487;-72
2023/02/22 03:15:11;;;;;;;;;;;;;;;23.83;33.60;95093.09;5055404;28;1453;-72
2023/02/22 03:17:46;;;;;;;;;;;;;;;23.84;33.52;95089.34;5042564;28;947;-72
2023/02/22 03:20:14;;;;;;;;;;;;;;;23.83;33.58;95093.09;5037115;28;1468;-72
2023/02/22 03:22:46;;;;;;;;;;;;;;;23.84;33.76;95100.06;5041753;28;1517;-72
2023/02/22 03:25:31;;;;;;;;;;;;;;;23.85;33.65;95093.69;5033770;28;1542;-72
2023/02/22 03:28:01;;;;;;;;;;;;;;;23.83;33.87;95087.72;5041729;28;1977;-71
2023/02/22 03:30:27;;;;;;;;;;;;;;;23.81;33.92;95092.50;5041079;28;1660;-71
2023/02/22 03:32:58;;;;;;;;;;;;;;;23.81;33.87;95092.50;5053391;28;1526;-71
2023/02/22 03:35:29;;;;;;;;;;;;;;;23.79;33.87;95097.25;5032642;28;1434;-70
2023/02/22 03:37:57;;;;;;;;;;;;;;;23.81;33.74;95089.00;5054878;28;1575;-71
2023/02/22 03:40:26;;;;;;;;;;;;;;;23.80;33.75;95096.22;5055239;28;1590;-71
2023/02/22 03:42:55;;;;;;;;;;;;;;;23.78;33.99;95092.94;5049036;28;1794;-72
2023/02/22 03:45:23;;;;;;;;;;;;;;;23.81;33.99;95092.50;5052018;28;1667;-71
2023/02/22 03:47:50;;;;;;;;;;;;;;;23.83;34.01;95095.78;5041807;28;1909;-71
2023/02/22 03:50:18;;;;;;;;;;;;;;;23.83;34.17;95090.41;5054187;28;1356;-71
2023/02/22 03:52:46;;;;;;;;;;;;;;;23.85;34.05;95093.69;5049993;28;1853;-71
2023/02/22 03:55:11;;;;;;;;;;;;;;;23.87;34.12;95088.91;5039575;28;1983;-71
2023/02/22 03:57:39;;;;;;;;;;;;;;;23.86;34.21;95095.31;5039579;28;1697;-70
2023/02/22 04:00:07;;;;;;;;;;;;;;;23.86;34.41;95098.00;5038941;28;1928;-71
2023/02/22 04:02:33;;;;;;;;;;;;;;;23.86;34.36;95081.09;5047143;28;1965;-70
2023/02/22 04:04:58;;;;;;;;;;;;;;;23.18;26.82;95090.84;5055238;28;1674;-69
2023/02/22 04:07:23;;;;;;;;;;;;;;;21.21;25.95;95090.53;5047061;28;1973;-69
2023/02/22 04:09:48;;;;;;;;;;;;;;;21.06;29.06;95087.25;5038332;28;1779;-71
2023/02/22 04:12:14;;;;;;;;;;;;;;;21.82;30.31;95088.56;5050094;28;1790;-72
2023/02/22 04:14:39;;;;;;;;;;;;;;;22.10;25.07;95089.03;5054801;28;1812;-69
2023/02/22 04:17:04;;;;;;;;;;;;;;;20.28;24.67;95094.94;5048628;28;1808;-69
2023/02/22 04:19:29;;;;;;;;;;;;;;;19.29;24.68;95101.44;5041832;28;1803;-69
2023/02/22 04:21:55;;;;;;;;;;;;;;;18.92;24.87;95095.44;5044241;28;1823;-69
2023/02/22 04:24:20;;;;;;;;;;;;;;;18.83;25.04;95093.97;5036626;28;1703;-69
2023/02/22 04:26:45;;;;;;;;;;;;;;;18.75;25.46;95100.22;5040430;28;2060;-69
2023/02/22 04:29:10;;;;;;;;;;;;;;;18.30;25.30;95106.72;5042348;28;1988;-69
2023/02/22 04:31:36;;;;;;;;;;;;;;;18.43;25.12;95106.84;5048108;28;1874;-69
2023/02/22 04:34:02;;;;;;;;;;;;;;;18.32;24.97;95104.69;5046212;28;1826;-69
2023/02/22 04:36:30;;;;;;;;;;;;;;;17.74;25.00;95101.97;5052192;28;1944;-69
2023/02/22 04:38:56;;;;;;;;;;;;;;;17.72;25.54;95104.00;5041236;28;1075;-69
2023/02/22 04:41:21;;;;;;;;;;;;;;;17.42;25.49;95108.50;5051023;28;1723;-70
2023/02/22 04:43:46;;;;;;;;;;;;;;;17.51;25.40;95118.84;5027411;28;1664;-70
2023/02/22 04:46:12;;;;;;;;;;;;;;;17.46;25.97;95115.91;5046473;28;1996;-69
2023/02/22 04:48:37;;;;;;;;;;;;;;;17.31;26.74;95105.28;5035118;28;1898;-69
2023/02/22 04:51:03;;;;;;;;;;;;;;;17.69;27.25;95104.38;5045179;28;1963;-70
2023/02/22 04:53:28;;;;;;;;;;;;;;;18.36;27.01;95100.66;5043574;28;1816;-67
2023/02/22 04:55:54;;;;;;;;;;;;;;;18.97;26.09;95097.53;5040679;28;1728;-68
2023/02/22 04:58:19;;;;;;;;;;;;;;;19.06;24.90;95102.50;5049519;28;1414;-68
2023/02/22 05:00:44;;;;;;;;;;;;;;;19.06;24.93;95102.50;5034880;28;1556;-68
2023/02/22 05:03:09;;;;;;;;;;;;;;;18.92;25.19;95110.59;5033343;28;1543;-68
2023/02/22 05:05:35;;;;;;;;;;;;;;;19.06;25.30;95107.81;5043689;28;1734;-68
2023/02/22 05:08:00;;;;;;;;;;;;;;;19.14;24.73;95106.88;5048098;28;1969;-73
2023/02/22 05:10:25;;;;;;;;;;;;;;;18.48;25.11;95106.28;5036497;28;1598;-69
2023/02/22 05:12:51;;;;;;;;;;;;;;;18.77;24.97;95114.16;5036226;28;1546;-69
2023/02/22 05:15:18;;;;;;;;;;;;;;;18.79;25.80;95106.81;5049027;28;1722;-68
2023/02/22 05:17:44;;;;;;;;;;;;;;;19.26;26.77;95112.47;5040278;28;1766;-67
2023/02/22 05:20:16;;;;;;;;;;;;;;;19.72;26.56;95111.94;5053281;28;1531;-67
2023/02/22 05:22:41;;;;;;;;;;;;;;;20.07;26.42;95109.25;5052917;28;1198;-67
2023/02/22 05:25:06;;;;;;;;;;;;;;;20.27;26.15;95112.78;5054092;28;880;-67
2023/02/22 05:27:31;;;;;;;;;;;;;;;20.43;26.33;95124.91;5054016;28;1971;-68
2023/02/22 05:29:57;;;;;;;;;;;;;;;20.55;26.27;95125.16;5044334;28;1035;-68
2023/02/22 05:32:22;;;;;;;;;;;;;;;20.67;26.40;95139.56;5034386;28;899;-68
2023/02/22 05:34:47;;;;;;;;;;;;;;;20.78;26.35;95136.28;5049359;28;1389;-68
2023/02/22 05:37:12;;;;;;;;;;;;;;;20.86;26.42;95137.91;5034030;28;852;-68
2023/02/22 05:39:38;;;;;;;;;;;;;;;20.94;26.39;95137.72;5029717;28;1143;-69
2023/02/22 05:42:03;;;;;;;;;;;;;;;21.01;26.47;95148.41;5029420;28;1134;-68
2023/02/22 05:44:28;;;;;;;;;;;;;;;21.06;26.51;95152.09;5034006;28;850;-68
2023/02/22 05:46:53;;;;;;;;;;;;;;;21.12;26.69;95150.47;5033772;28;1969;-68
2023/02/22 05:49:19;;;;;;;;;;;;;;;21.18;26.69;95148.81;5033932;28;864;-69
2023/02/22 05:51:44;;;;;;;;;;;;;;;21.21;26.79;95151.88;5024312;28;975;-69
2023/02/22 05:54:09;;;;;;;;;;;;;;;21.25;26.78;95155.78;5033781;28;885;-69
2023/02/22 05:56:35;;;;;;;;;;;;;;;21.30;26.92;95161.31;5033754;28;862;-68
2023/02/22 05:59:00;;;;;;;;;;;;;;;21.36;26.79;95158.84;5033727;28;849;-69
2023/02/22 06:01:26;;;;;;;;;;;;;;;21.38;26.98;95164.84;5033598;28;856;-68
2023/02/22 06:03:51;;;;;;;;;;;;;;;21.41;26.91;95161.78;5023824;28;1390;-68
2023/02/22 06:06:19;;;;;;;;;;;;;;;21.45;26.91;95162.97;5033584;28;813;-68
2023/02/22 06:08:44;;;;;;;;;;;;;;;21.49;27.06;95156.22;5033488;28;1973;-68
2023/02/22 06:11:10;;;;;;;;;;;;;;;21.51;26.92;95164.81;5033581;28;942;-68
2023/02/22 06:13:35;;;;;;;;;;;;;;;21.55;27.07;95147.38;5028947;28;1165;-68
2023/02/22 06:16:01;;;;;;;;;;;;;;;21.59;26.82;95148.59;5028509;28;1186;-68
2023/02/22 06:18:29;;;;;;;;;;;;;;;21.62;27.07;95152.69;5033358;28;861;-68
2023/02/22 06:20:54;;;;;;;;;;;;;;;21.63;27.08;95152.50;5048630;28;1211;-68
2023/02/22 06:23:19;;;;;;;;;;;;;;;21.66;27.18;95149.41;5048644;28;1394;-68
2023/02/22 06:25:45;;;;;;;;;;;;;;;21.73;26.96;95146.72;5022453;28;1310;-68
2023/02/22 06:28:10;;;;;;;;;;;;;;;21.78;27.07;95150.41;5032986;28;1906;-68
2023/02/22 06:30:35;;;;;;;;;;;;;;;21.82;27.00;95141.97;5033007;28;857;-68
2023/02/22 06:33:00;;;;;;;;;;;;;;;21.88;27.00;95146.47;5032013;28;1410;-68
2023/02/22 06:35:26;;;;;;;;;;;;;;;21.92;26.96;95145.03;5048477;28;1426;-69
2023/02/22 06:37:51;;;;;;;;;;;;;;;21.94;27.12;95154.47;5023363;28;1145;-68
2023/02/22 06:40:16;;;;;;;;;;;;;;;21.99;27.10;95151.16;5033097;28;953;-68
2023/02/22 06:42:42;;;;;;;;;;;;;;;22.01;27.02;95154.44;5033153;28;875;-68
2023/02/22 06:45:08;;;;;;;;;;;;;;;22.03;27.13;95147.03;5048748;28;1171;-68
2023/02/22 06:47:36;;;;;;;;;;;;;;;22.05;27.08;95150.31;5030847;28;1964;-69
2023/02/22 06:50:01;;;;;;;;;;;;;;;22.08;27.00;95154.41;5032036;28;1087;-68
2023/02/22 06:52:27;;;;;;;;;;;;;;;22.09;27.17;95151.53;5051282;28;1009;-68
2023/02/22 06:54:52;;;;;;;;;;;;;;;22.11;27.26;95157.47;5041234;28;1346;-68
2023/02/22 06:59:52;;;;;;;;;;;;;;;22.14;27.15;95149.06;5788904;22;1658;-66
2023/02/22 07:02:18;;;;;;;;;;;;;;;22.17;26.99;95147.78;5032267;28;1584;-66
2023/02/22 07:04:44;;;;;;;;;;;;;;;22.19;27.19;95153.78;5037383;28;804;-66
2023/02/22 07:07:09;;;;;;;;;;;;;;;22.22;27.18;95156.84;5036961;28;1977;-68
2023/02/22 07:09:34;;;;;;;;;;;;;;;22.08;27.11;95136.53;5036601;28;791;-69
2023/02/22 07:12:00;;;;;;;;;;;;;;;22.29;27.14;95161.38;5025263;28;1306;-68
2023/02/22 07:14:25;;;;;;;;;;;;;;;22.32;27.06;95152.91;5036639;28;860;-68
2023/02/22 07:16:50;;;;;;;;;;;;;;;22.34;26.92;95148.16;5036723;28;848;-68
2023/02/22 07:19:15;;;;;;;;;;;;;;;22.38;27.15;95157.41;5034762;28;1173;-68
2023/02/22 07:21:41;;;;;;;;;;;;;;;22.40;27.24;95158.84;5031483;28;1114;-68
2023/02/22 07:24:06;;;;;;;;;;;;;;;22.43;27.13;95162.94;5031007;28;1059;-68
2023/02/22 07:26:37;;;;;;;;;;;;;;;22.43;26.95;95168.28;5036264;28;832;-68
2023/02/22 07:29:02;;;;;;;;;;;;;;;22.45;27.10;95169.72;5036076;28;1969;-68
2023/02/22 07:31:27;;;;;;;;;;;;;;;22.49;27.06;95166.63;5036090;28;908;-68
2023/02/22 07:33:52;;;;;;;;;;;;;;;22.51;26.90;95162.66;5025013;28;1367;-68
2023/02/22 07:36:18;;;;;;;;;;;;;;;22.53;27.12;95157.94;5035785;28;1003;-68
2023/02/22 07:38:44;;;;;;;;;;;;;;;22.53;26.94;95157.94;5035931;28;813;-68
2023/02/22 07:41:09;;;;;;;;;;;;;;;22.59;27.15;95161.59;5035888;28;796;-68
2023/02/22 07:43:35;;;;;;;;;;;;;;;22.62;26.80;95155.81;5035883;28;868;-68
2023/02/22 07:46:01;;;;;;;;;;;;;;;22.66;27.21;95151.72;5024258;28;1327;-68
2023/02/22 07:48:28;;;;;;;;;;;;;;;22.68;27.00;95157.63;5034394;28;1905;-68
2023/02/22 07:50:53;;;;;;;;;;;;;;;22.71;27.03;95156.41;5035823;28;931;-67
2023/02/22 07:53:20;;;;;;;;;;;;;;;22.75;27.10;95154.94;5034365;28;1335;-68
2023/02/22 07:55:49;;;;;;;;;;;;;;;22.78;27.04;95146.50;5031042;28;1028;-68
2023/02/22 07:58:15;;;;;;;;;;;;;;;22.83;27.01;95142.13;5030388;28;1159;-68
2023/02/22 08:00:40;;;;;;;;;;;;;;;22.84;26.86;95149.09;5035295;28;1349;-68
2023/02/22 08:03:09;;;;;;;;;;;;;;;22.88;27.04;95144.13;5035772;28;860;-67
2023/02/22 08:05:36;;;;;;;;;;;;;;;22.90;27.01;95142.88;5035453;28;962;-68
2023/02/22 08:08:01;;;;;;;;;;;;;;;22.93;26.95;95147.00;5025674;28;1914;-68
2023/02/22 08:10:27;;;;;;;;;;;;;;;22.96;26.77;95141.22;5035079;28;1103;-68
2023/02/22 08:12:52;;;;;;;;;;;;;;;22.97;26.96;95139.38;5034075;28;1165;-68
2023/02/22 08:15:20;;;;;;;;;;;;;;;22.96;26.86;95140.41;5035257;28;877;-68
2023/02/22 08:17:45;;;;;;;;;;;;;;;23.01;26.90;95132.56;5035234;28;860;-67
2023/02/22 08:20:11;;;;;;;;;;;;;;;23.04;26.85;95135.63;5025319;28;1163;-68
2023/02/22 08:22:36;;;;;;;;;;;;;;;23.05;26.71;95142.63;5035093;28;946;-68
2023/02/22 08:25:01;;;;;;;;;;;;;;;23.09;26.89;95141.13;5035085;28;928;-68
2023/02/22 08:27:28;;;;;;;;;;;;;;;23.10;26.85;95134.75;5035291;28;1898;-68
2023/02/22 08:29:54;;;;;;;;;;;;;;;23.12;26.65;95135.34;5030507;28;1049;-68
2023/02/22 08:32:19;;;;;;;;;;;;;;;23.13;26.61;95130.81;5027968;28;1164;-68
2023/02/22 08:34:45;;;;;;;;;;;;;;;23.15;26.99;95127.94;5034944;28;921;-67
2023/02/22 08:37:10;;;;;;;;;;;;;;;23.12;26.90;95124.66;5034874;28;888;-68
2023/02/22 08:39:35;;;;;;;;;;;;;;;23.12;26.89;95124.66;5034898;28;797;-68
2023/02/22 08:42:00;;;;;;;;;;;;;;;23.16;26.72;95124.22;5025077;28;1044;-68
2023/02/22 08:44:26;;;;;;;;;;;;;;;23.17;26.82;95120.47;5034581;28;1136;-67
2023/02/22 08:46:51;;;;;;;;;;;;;;;23.18;26.75;95119.47;5034645;28;1894;-67
2023/02/22 08:49:16;;;;;;;;;;;;;;;23.18;26.89;95116.78;5034887;28;805;-68
2023/02/22 08:51:41;;;;;;;;;;;;;;;23.19;26.91;95118.41;5034604;28;872;-68
2023/02/22 08:54:07;;;;;;;;;;;;;;;23.22;26.95;95117.97;5024549;28;1045;-68
2023/02/22 08:56:32;;;;;;;;;;;;;;;23.21;26.75;95113.66;5034537;28;808;-69
2023/02/22 08:58:57;;;;;;;;;;;;;;;23.24;26.77;95113.22;5033231;28;865;-69
2023/02/22 09:01:23;;;;;;;;;;;;;;;23.26;26.92;95113.84;5034349;28;1422;-68
2023/02/22 09:03:48;;;;;;;;;;;;;;;23.26;26.75;95113.84;5030354;28;1371;-67
2023/02/22 09:06:14;;;;;;;;;;;;;;;23.26;26.97;95111.97;5027511;28;1199;-68
2023/02/22 09:08:39;;;;;;;;;;;;;;;23.26;26.73;95106.63;5034053;28;1914;-68
2023/02/22 09:11:04;;;;;;;;;;;;;;;23.26;26.85;95106.63;5033800;28;887;-69
2023/02/22 09:13:29;;;;;;;;;;;;;;;23.24;26.98;95105.19;5032595;28;1472;-69
2023/02/22 09:15:55;;;;;;;;;;;;;;;23.25;26.89;95106.81;5026734;28;1268;-69
2023/02/22 09:18:20;;;;;;;;;;;;;;;23.26;27.01;95108.47;5036154;28;1124;-69
2023/02/22 09:20:46;;;;;;;;;;;;;;;23.29;26.73;95102.69;5034231;28;939;-68
2023/02/22 09:23:13;;;;;;;;;;;;;;;23.28;26.97;95106.38;5034063;28;804;-69
2023/02/22 09:25:39;;;;;;;;;;;;;;;23.29;26.91;95097.34;5034004;28;856;-68
2023/02/22 09:28:05;;;;;;;;;;;;;;;23.26;26.90;95097.78;5023972;28;1966;-69
2023/02/22 09:30:34;;;;;;;;;;;;;;;23.25;27.07;95094.28;5033958;28;889;-69
2023/02/22 09:33:04;;;;;;;;;;;;;;;23.25;27.10;95093.44;5032534;28;1365;-68
2023/02/22 09:35:30;;;;;;;;;;;;;;;23.29;27.09;95098.16;5033959;28;793;-69
2023/02/22 09:37:56;;;;;;;;;;;;;;;23.27;26.93;95088.69;5030604;28;877;-71
2023/02/22 09:40:28;;;;;;;;;;;;;;;23.27;27.03;95089.50;5009932;28;1333;-68
2023/02/22 09:43:12;;;;;;;;;;;;;;;23.28;27.14;95084.97;5034028;28;856;-69
2023/02/22 09:45:50;;;;;;;;;;;;;;;23.27;27.17;95091.38;5033557;28;820;-67
2023/02/22 09:48:17;;;;;;;;;;;;;;;23.29;27.02;95082.09;5033649;28;1963;-67
2023/02/22 09:50:45;;;;;;;;;;;;;;;23.29;27.20;95084.75;5023755;28;1080;-68
2023/02/22 09:53:20;;;;;;;;;;;;;;;23.29;27.06;95082.09;5033632;28;935;-68
2023/02/22 09:55:49;;;;;;;;;;;;;;;23.32;26.90;95075.47;5033756;28;809;-68
2023/02/22 09:58:17;;;;;;;;;;;;;;;23.32;27.10;95081.66;5033720;28;887;-67
2023/02/22 10:00:45;;;;;;;;;;;;;;;23.31;26.85;95066.63;5027204;28;1339;-69
2023/02/22 10:03:22;;;;;;;;;;;;;;;23.32;27.17;95067.44;5028306;28;1191;-67
2023/02/22 10:05:58;;;;;;;;;;;;;;;23.32;26.94;95062.09;5033478;28;888;-68
2023/02/22 10:08:28;;;;;;;;;;;;;;;23.32;26.87;95059.41;5031709;28;1959;-68
2023/02/22 10:11:00;;;;;;;;;;;;;;;23.33;27.10;95053.00;5032111;28;1463;-69
2023/02/22 10:13:49;;;;;;;;;;;;;;;23.34;27.10;95049.31;5021764;28;1364;-68
2023/02/22 10:16:53;;;;;;;;;;;;;;;23.35;27.18;95048.25;5033454;28;856;-68
2023/02/22 10:19:24;;;;;;;;;;;;;;;23.33;26.97;95043.13;4991865;28;1338;-68
2023/02/22 10:21:49;;;;;;;;;;;;;;;23.34;26.99;95033.25;4991338;28;868;-69
2023/02/22 10:24:37;;;;;;;;;;;;;;;23.34;27.17;95030.56;4991874;28;1189;-68
2023/02/22 10:27:03;;;;;;;;;;;;;;;23.34;27.30;95030.56;5031808;28;1959;-68
2023/02/22 10:29:28;;;;;;;;;;;;;;;23.33;27.21;95028.91;5031725;28;1401;-69
2023/02/22 10:31:58;;;;;;;;;;;;;;;23.34;27.16;95015.31;5033012;28;822;-69
2023/02/22 10:34:29;;;;;;;;;;;;;;;23.33;27.18;95019.03;5033370;28;796;-69
2023/02/22 10:36:58;;;;;;;;;;;;;;;23.34;27.16;95007.28;5021795;28;1252;-69
2023/02/22 10:39:31;;;;;;;;;;;;;;;23.34;27.15;95007.28;5033039;28;951;-68
2023/02/22 10:42:04;;;;;;;;;;;;;;;23.34;27.12;94998.44;5032859;28;869;-68
2023/02/22 10:44:30;;;;;;;;;;;;;;;23.33;27.08;94994.13;5033166;28;911;-69
2023/02/22 10:46:57;;;;;;;;;;;;;;;23.33;27.27;94994.13;5023151;28;1958;-69
2023/02/22 10:49:23;;;;;;;;;;;;;;;23.33;27.12;94989.56;5032684;28;1018;-69
2023/02/22 10:51:57;;;;;;;;;;;;;;;23.34;27.25;94987.75;5033151;28;816;-69
2023/02/22 10:54:25;;;;;;;;;;;;;;;23.34;27.15;94987.75;5032880;28;844;-69
2023/02/22 10:56:54;;;;;;;;;;;;;;;23.35;27.23;94981.34;5033080;28;820;-69
2023/02/22 10:59:45;;;;;;;;;;;;;;;23.33;27.44;94976.19;5022615;28;1283;-69
2023/02/22 11:02:13;;;;;;;;;;;;;;;23.33;26.96;94980.72;5030708;28;1336;-68
2023/02/22 11:04:44;;;;;;;;;;;;;;;23.32;27.23;94974.56;5032704;28;817;-69
2023/02/22 11:07:26;;;;;;;;;;;;;;;23.33;27.21;94978.06;5031342;28;1914;-68
2023/02/22 11:09:58;;;;;;;;;;;;;;;23.32;27.34;94973.75;5022782;28;1049;-69
2023/02/22 11:12:31;;;;;;;;;;;;;;;23.32;27.24;94969.22;5032656;28;917;-69
2023/02/22 11:15:21;;;;;;;;;;;;;;;23.32;27.27;94965.72;5032969;28;867;-68
2023/02/22 11:17:47;;;;;;;;;;;;;;;23.33;27.36;94964.66;5032965;28;817;-67
2023/02/22 11:20:24;;;;;;;;;;;;;;;23.34;27.23;94963.66;5028156;28;1015;-68
2023/02/22 11:22:52;;;;;;;;;;;;;;;23.34;27.40;94964.47;5027316;28;1122;-68
2023/02/22 11:25:20;;;;;;;;;;;;;;;23.32;27.22;94950.47;5032535;28;816;-68
2023/02/22 11:27:46;;;;;;;;;;;;;;;23.33;27.08;94954.78;5032704;28;1962;-68
2023/02/22 11:30:20;;;;;;;;;;;;;;;23.33;27.37;94952.09;5032359;28;903;-68
2023/02/22 11:32:58;;;;;;;;;;;;;;;23.32;27.15;94938.97;5021640;28;1316;-69
2023/02/22 11:35:49;;;;;;;;;;;;;;;23.33;27.35;94946.75;5036215;28;836;-68
2023/02/22 11:38:23;;;;;;;;;;;;;;;23.31;27.55;94940.81;5036153;28;849;-69
2023/02/22 11:41:13;;;;;;;;;;;;;;;23.31;27.32;94935.47;5034731;28;1312;-68
2023/02/22 11:43:38;;;;;;;;;;;;;;;23.33;27.42;94936.03;5021103;28;1342;-68
2023/02/22 11:46:07;;;;;;;;;;;;;;;23.33;27.30;94924.53;5034417;28;1341;-69
2023/02/22 11:48:35;;;;;;;;;;;;;;;23.33;27.30;94935.22;5035847;28;1882;-68
2023/02/22 11:51:25;;;;;;;;;;;;;;;23.33;27.41;94922.66;5034622;28;1491;-69
2023/02/22 11:54:10;;;;;;;;;;;;;;;23.33;27.44;94922.66;5035943;28;895;-68
2023/02/22 11:56:38;;;;;;;;;;;;;;;23.33;27.43;94919.16;5027708;28;1099;-68
2023/02/22 11:59:16;;;;;;;;;;;;;;;23.34;27.51;94921.63;5036216;28;853;-70
2023/02/22 12:01:47;;;;;;;;;;;;;;;23.33;27.31;94909.28;5035652;28;810;-69
2023/02/22 12:04:28;;;;;;;;;;;;;;;23.33;27.45;94911.13;5035496;28;817;-68
2023/02/22 12:07:08;;;;;;;;;;;;;;;23.34;27.46;94908.25;5025729;28;1910;-68
2023/02/22 12:09:42;;;;;;;;;;;;;;;23.35;27.58;94911.75;5034283;28;1232;-69
2023/02/22 12:12:23;;;;;;;;;;;;;;;23.33;27.48;94905.78;5035616;28;877;-68
2023/02/22 12:14:54;;;;;;;;;;;;;;;23.33;27.45;94903.09;5034208;28;1352;-68
2023/02/22 12:17:20;;;;;;;;;;;;;;;23.33;27.54;94906.59;5030568;28;1064;-69
2023/02/22 12:19:47;;;;;;;;;;;;;;;23.35;27.34;94903.72;5030138;28;1083;-68
2023/02/22 12:22:22;;;;;;;;;;;;;;;23.36;27.53;94902.66;5035338;28;824;-67
2023/02/22 12:24:50;;;;;;;;;;;;;;;23.35;27.51;94893.00;5035245;28;798;-68
2023/02/22 12:27:25;;;;;;;;;;;;;;;23.36;27.70;94894.63;5033654;28;1967;-67
2023/02/22 12:29:56;;;;;;;;;;;;;;;23.36;27.53;94889.28;5025203;28;1087;-68
2023/02/22 12:32:21;;;;;;;;;;;;;;;23.36;27.45;94883.91;5033396;28;1232;-68
2023/02/22 12:34:49;;;;;;;;;;;;;;;23.37;27.39;94882.88;5035268;28;813;-68
2023/02/22 12:37:21;;;;;;;;;;;;;;;23.36;27.62;94878.56;5034979;28;812;-68
2023/02/22 12:39:55;;;;;;;;;;;;;;;23.37;27.56;94885.56;5030396;28;1162;-67
2023/02/22 12:42:32;;;;;;;;;;;;;;;23.38;27.33;94881.84;5030073;28;1084;-67
2023/02/22 12:45:15;;;;;;;;;;;;;;;23.37;27.46;94877.53;5034356;28;872;-68
2023/02/22 12:47:45;;;;;;;;;;;;;;;23.36;27.52;94870.53;5033451;28;1969;-68
2023/02/22 12:50:19;;;;;;;;;;;;;;;23.38;27.54;94873.00;5034835;28;824;-68
2023/02/22 12:52:49;;;;;;;;;;;;;;;23.38;27.48;94864.97;5023376;28;1345;-68
2023/02/22 12:55:14;;;;;;;;;;;;;;;23.38;27.47;94871.13;5034783;28;781;-68
2023/02/22 12:57:46;;;;;;;;;;;;;;;23.38;27.49;94863.09;5034727;28;793;-68
2023/02/22 13:00:31;;;;;;;;;;;;;;;23.38;27.50;94867.66;5034537;28;1336;-68
2023/02/22 13:02:57;;;;;;;;;;;;;;;23.38;27.53;94865.78;5029686;28;1083;-68
2023/02/22 13:05:22;;;;;;;;;;;;;;;23.39;27.38;94864.72;5029685;28;1038;-68
2023/02/22 13:08:10;;;;;;;;;;;;;;;23.39;27.42;94858.56;5034751;28;1958;-68
2023/02/22 13:10:45;;;;;;;;;;;;;;;23.38;27.45;94855.06;5034557;28;852;-68